sensor_id;sensor_type;location;lat;lon;timestamp;P1;durP1;ratioP1;P2;durP2;ratioP2
22476;SDS011;65006;51.698;-0.292;2023-02-22T00:00:14;31.25;;;15.25;;
22476;SDS011;65006;51.698;-0.292;2023-02-22T00:02:50;32.83;;;15.73;;
22476;SDS011;65006;51.698;-0.292;2023-02-22T00:05:17;30.48;;;14.93;;
22476;SDS011;65006;51.698;-0.292;2023-02-22T00:07:47;30.95;;;14.27;;
22476;SDS011;65006;51.698;-0.292;2023-02-22T00:10:16;27.58;;;13.52;;
22476;SDS011;65006;51.698;-0.292;2023-02-22T00:12:46;35.70;;;16.58;;
22476;SDS011;65006;51.698;-0.292;2023-02-22T00:15:14;30.85;;;15.18;;
22476;SDS011;65006;51.698;-0.292;2023-02-22T00:17:40;33.88;;;15.85;;
22476;SDS011;65006;51.698;-0.292;2023-02-22T00:20:06;36.03;;;15.75;;
22476;SDS011;65006;51.698;-0.292;2023-02-22T00:22:34;33.50;;;15.70;;
22476;SDS011;65006;51.698;-0.292;2023-02-22T00:25:00;38.72;;;17.88;;
22476;SDS011;65006;51.698;-0.292;2023-02-22T00:27:26;31.77;;;16.83;;
22476;SDS011;65006;51.698;-0.292;2023-02-22T00:29:52;36.15;;;16.80;;
22476;SDS011;65006;51.698;-0.292;2023-02-22T00:32:20;35.80;;;16.92;;
22476;SDS011;65006;51.698;-0.292;2023-02-22T00:34:49;37.85;;;17.75;;
22476;SDS011;65006;51.698;-0.292;2023-02-22T00:37:16;36.05;;;17.45;;
22476;SDS011;65006;51.698;-0.292;2023-02-22T00:39:44;41.80;;;18.02;;
22476;SDS011;65006;51.698;-0.292;2023-02-22T00:42:10;40.28;;;17.85;;
22476;SDS011;65006;51.698;-0.292;2023-02-22T00:44:36;40.58;;;17.75;;
22476;SDS011;65006;51.698;-0.292;2023-02-22T00:47:02;38.47;;;17.67;;
22476;SDS011;65006;51.698;-0.292;2023-02-22T00:49:28;33.30;;;16.52;;
22476;SDS011;65006;51.698;-0.292;2023-02-22T00:51:55;39.67;;;17.85;;
22476;SDS011;65006;51.698;-0.292;2023-02-22T00:54:21;41.05;;;17.80;;
22476;SDS011;65006;51.698;-0.292;2023-02-22T00:56:47;43.47;;;18.98;;
22476;SDS011;65006;51.698;-0.292;2023-02-22T00:59:14;39.70;;;18.08;;
22476;SDS011;65006;51.698;-0.292;2023-02-22T01:01:40;42.70;;;18.25;;
22476;SDS011;65006;51.698;-0.292;2023-02-22T01:04:07;39.92;;;18.35;;
22476;SDS011;65006;51.698;-0.292;2023-02-22T01:06:33;41.75;;;18.33;;
22476;SDS011;65006;51.698;-0.292;2023-02-22T01:08:59;42.58;;;18.55;;
22476;SDS011;65006;51.698;-0.292;2023-02-22T01:11:26;37.85;;;16.73;;
22476;SDS011;65006;51.698;-0.292;2023-02-22T01:13:53;37.30;;;17.25;;
22476;SDS011;65006;51.698;-0.292;2023-02-22T01:18:45;40.10;;;18.20;;
22476;SDS011;65006;51.698;-0.292;2023-02-22T01:21:11;43.13;;;17.70;;
22476;SDS011;65006;51.698;-0.292;2023-02-22T01:23:37;39.75;;;17.50;;
22476;SDS011;65006;51.698;-0.292;2023-02-22T01:26:03;43.55;;;18.20;;
22476;SDS011;65006;51.698;-0.292;2023-02-22T01:28:33;39.88;;;17.55;;
22476;SDS011;65006;51.698;-0.292;2023-02-22T01:30:59;40.55;;;17.88;;
22476;SDS011;65006;51.698;-0.292;2023-02-22T01:33:26;40.15;;;18.90;;
22476;SDS011;65006;51.698;-0.292;2023-02-22T01:35:52;41.30;;;17.58;;
22476;SDS011;65006;51.698;-0.292;2023-02-22T01:38:18;42.85;;;17.42;;
22476;SDS011;65006;51.698;-0.292;2023-02-22T01:40:48;41.63;;;18.08;;
22476;SDS011;65006;51.698;-0.292;2023-02-22T01:51:22;38.78;;;18.25;;
22476;SDS011;65006;51.698;-0.292;2023-02-22T01:53:35;36.85;;;16.88;;
22476;SDS011;65006;51.698;-0.292;2023-02-22T01:56:02;39.78;;;18.02;;
22476;SDS011;65006;51.698;-0.292;2023-02-22T01:58:29;46.92;;;20.52;;
22476;SDS011;65006;51.698;-0.292;2023-02-22T02:00:57;42.67;;;19.58;;
22476;SDS011;65006;51.698;-0.292;2023-02-22T02:03:24;38.63;;;18.23;;
22476;SDS011;65006;51.698;-0.292;2023-02-22T02:05:51;41.00;;;18.75;;
22476;SDS011;65006;51.698;-0.292;2023-02-22T02:10:45;43.65;;;18.58;;
22476;SDS011;65006;51.698;-0.292;2023-02-22T02:13:11;43.70;;;18.27;;
22476;SDS011;65006;51.698;-0.292;2023-02-22T02:15:37;44.92;;;18.45;;
22476;SDS011;65006;51.698;-0.292;2023-02-22T02:18:05;44.38;;;19.00;;
22476;SDS011;65006;51.698;-0.292;2023-02-22T02:35:48;43.40;;;18.83;;
22476;SDS011;65006;51.698;-0.292;2023-02-22T02:40:53;44.95;;;18.83;;
22476;SDS011;65006;51.698;-0.292;2023-02-22T02:43:27;41.20;;;18.38;;
22476;SDS011;65006;51.698;-0.292;2023-02-22T02:48:20;46.13;;;20.05;;
22476;SDS011;65006;51.698;-0.292;2023-02-22T02:50:48;41.13;;;17.92;;
22476;SDS011;65006;51.698;-0.292;2023-02-22T02:53:16;46.63;;;19.00;;
22476;SDS011;65006;51.698;-0.292;2023-02-22T02:55:44;43.45;;;18.50;;
22476;SDS011;65006;51.698;-0.292;2023-02-22T02:58:15;39.88;;;18.42;;
22476;SDS011;65006;51.698;-0.292;2023-02-22T03:00:41;41.35;;;18.45;;
22476;SDS011;65006;51.698;-0.292;2023-02-22T03:08:44;37.72;;;17.80;;
22476;SDS011;65006;51.698;-0.292;2023-02-22T03:11:13;46.70;;;19.83;;
22476;SDS011;65006;51.698;-0.292;2023-02-22T03:16:20;45.53;;;19.05;;
22476;SDS011;65006;51.698;-0.292;2023-02-22T03:23:55;46.20;;;18.33;;
22476;SDS011;65006;51.698;-0.292;2023-02-22T03:26:34;47.63;;;18.53;;
22476;SDS011;65006;51.698;-0.292;2023-02-22T03:29:01;42.47;;;18.13;;
22476;SDS011;65006;51.698;-0.292;2023-02-22T03:31:30;41.88;;;18.92;;
22476;SDS011;65006;51.698;-0.292;2023-02-22T03:34:01;45.72;;;18.83;;
22476;SDS011;65006;51.698;-0.292;2023-02-22T03:36:30;42.53;;;18.15;;
22476;SDS011;65006;51.698;-0.292;2023-02-22T03:38:58;47.55;;;20.00;;
22476;SDS011;65006;51.698;-0.292;2023-02-22T03:41:25;48.85;;;19.10;;
22476;SDS011;65006;51.698;-0.292;2023-02-22T03:43:56;45.20;;;18.75;;
22476;SDS011;65006;51.698;-0.292;2023-02-22T03:46:25;49.70;;;20.48;;
22476;SDS011;65006;51.698;-0.292;2023-02-22T03:51:25;46.60;;;19.50;;
22476;SDS011;65006;51.698;-0.292;2023-02-22T03:53:52;48.65;;;19.73;;
22476;SDS011;65006;51.698;-0.292;2023-02-22T03:56:29;40.45;;;18.92;;
22476;SDS011;65006;51.698;-0.292;2023-02-22T03:59:07;44.53;;;18.85;;
22476;SDS011;65006;51.698;-0.292;2023-02-22T04:01:33;44.47;;;19.15;;
22476;SDS011;65006;51.698;-0.292;2023-02-22T04:03:59;45.22;;;19.30;;
22476;SDS011;65006;51.698;-0.292;2023-02-22T04:06:26;44.92;;;19.85;;
22476;SDS011;65006;51.698;-0.292;2023-02-22T04:08:52;46.10;;;19.88;;
22476;SDS011;65006;51.698;-0.292;2023-02-22T04:11:18;49.50;;;19.33;;
22476;SDS011;65006;51.698;-0.292;2023-02-22T04:13:44;45.22;;;19.20;;
22476;SDS011;65006;51.698;-0.292;2023-02-22T04:16:10;52.08;;;21.30;;
22476;SDS011;65006;51.698;-0.292;2023-02-22T04:18:36;48.65;;;19.02;;
22476;SDS011;65006;51.698;-0.292;2023-02-22T04:21:02;51.92;;;21.25;;
22476;SDS011;65006;51.698;-0.292;2023-02-22T04:23:28;52.83;;;22.05;;
22476;SDS011;65006;51.698;-0.292;2023-02-22T04:25:54;53.17;;;21.27;;
22476;SDS011;65006;51.698;-0.292;2023-02-22T04:28:20;55.90;;;19.83;;
22476;SDS011;65006;51.698;-0.292;2023-02-22T04:30:46;55.78;;;20.60;;
22476;SDS011;65006;51.698;-0.292;2023-02-22T04:33:12;49.83;;;20.20;;
22476;SDS011;65006;51.698;-0.292;2023-02-22T04:35:40;58.42;;;22.48;;
22476;SDS011;65006;51.698;-0.292;2023-02-22T04:38:06;58.70;;;20.85;;
22476;SDS011;65006;51.698;-0.292;2023-02-22T04:40:33;52.08;;;20.13;;
22476;SDS011;65006;51.698;-0.292;2023-02-22T04:42:59;51.40;;;21.17;;
22476;SDS011;65006;51.698;-0.292;2023-02-22T04:45:26;59.40;;;21.48;;
22476;SDS011;65006;51.698;-0.292;2023-02-22T04:47:52;57.03;;;21.38;;
22476;SDS011;65006;51.698;-0.292;2023-02-22T04:50:18;61.65;;;23.05;;
22476;SDS011;65006;51.698;-0.292;2023-02-22T04:52:44;50.28;;;21.88;;
22476;SDS011;65006;51.698;-0.292;2023-02-22T04:55:11;57.65;;;21.17;;
22476;SDS011;65006;51.698;-0.292;2023-02-22T04:57:37;62.25;;;22.30;;
22476;SDS011;65006;51.698;-0.292;2023-02-22T05:00:04;59.78;;;21.80;;
22476;SDS011;65006;51.698;-0.292;2023-02-22T05:02:30;65.35;;;22.85;;
22476;SDS011;65006;51.698;-0.292;2023-02-22T05:04:57;59.60;;;21.70;;
22476;SDS011;65006;51.698;-0.292;2023-02-22T05:07:23;55.47;;;21.88;;
22476;SDS011;65006;51.698;-0.292;2023-02-22T05:09:49;59.53;;;22.48;;
22476;SDS011;65006;51.698;-0.292;2023-02-22T05:12:15;64.80;;;22.20;;
22476;SDS011;65006;51.698;-0.292;2023-02-22T05:14:41;62.78;;;22.63;;
22476;SDS011;65006;51.698;-0.292;2023-02-22T05:17:08;68.57;;;23.30;;
22476;SDS011;65006;51.698;-0.292;2023-02-22T05:19:34;65.13;;;22.77;;
22476;SDS011;65006;51.698;-0.292;2023-02-22T05:24:27;71.97;;;23.85;;
22476;SDS011;65006;51.698;-0.292;2023-02-22T05:26:53;66.50;;;23.58;;
22476;SDS011;65006;51.698;-0.292;2023-02-22T05:29:19;61.28;;;20.92;;
22476;SDS011;65006;51.698;-0.292;2023-02-22T05:31:45;63.50;;;22.00;;
22476;SDS011;65006;51.698;-0.292;2023-02-22T05:34:11;60.00;;;22.10;;
22476;SDS011;65006;51.698;-0.292;2023-02-22T05:36:38;59.10;;;20.67;;
22476;SDS011;65006;51.698;-0.292;2023-02-22T05:39:04;70.65;;;22.50;;
22476;SDS011;65006;51.698;-0.292;2023-02-22T05:41:30;63.88;;;22.10;;
22476;SDS011;65006;51.698;-0.292;2023-02-22T05:43:56;64.30;;;21.08;;
22476;SDS011;65006;51.698;-0.292;2023-02-22T05:46:22;73.75;;;22.17;;
22476;SDS011;65006;51.698;-0.292;2023-02-22T05:48:49;65.05;;;22.17;;
22476;SDS011;65006;51.698;-0.292;2023-02-22T05:51:15;73.10;;;23.17;;
22476;SDS011;65006;51.698;-0.292;2023-02-22T05:53:43;62.83;;;21.30;;
22476;SDS011;65006;51.698;-0.292;2023-02-22T05:56:09;67.43;;;23.52;;
22476;SDS011;65006;51.698;-0.292;2023-02-22T05:58:35;64.25;;;21.27;;
22476;SDS011;65006;51.698;-0.292;2023-02-22T06:01:01;59.15;;;21.42;;
22476;SDS011;65006;51.698;-0.292;2023-02-22T06:03:27;58.20;;;21.27;;
22476;SDS011;65006;51.698;-0.292;2023-02-22T06:05:53;62.75;;;22.38;;
22476;SDS011;65006;51.698;-0.292;2023-02-22T06:08:19;62.97;;;22.33;;
22476;SDS011;65006;51.698;-0.292;2023-02-22T06:10:45;63.10;;;21.33;;
22476;SDS011;65006;51.698;-0.292;2023-02-22T06:13:11;70.45;;;22.25;;
22476;SDS011;65006;51.698;-0.292;2023-02-22T06:15:37;64.88;;;21.73;;
22476;SDS011;65006;51.698;-0.292;2023-02-22T06:18:03;61.20;;;21.70;;
22476;SDS011;65006;51.698;-0.292;2023-02-22T06:20:29;57.20;;;20.38;;
22476;SDS011;65006;51.698;-0.292;2023-02-22T06:22:57;69.25;;;23.27;;
22476;SDS011;65006;51.698;-0.292;2023-02-22T06:25:24;61.60;;;21.25;;
22476;SDS011;65006;51.698;-0.292;2023-02-22T06:27:51;65.95;;;22.75;;
22476;SDS011;65006;51.698;-0.292;2023-02-22T06:30:18;68.43;;;22.88;;
22476;SDS011;65006;51.698;-0.292;2023-02-22T06:32:44;68.25;;;22.17;;
22476;SDS011;65006;51.698;-0.292;2023-02-22T06:35:10;65.20;;;22.60;;
22476;SDS011;65006;51.698;-0.292;2023-02-22T06:37:38;67.55;;;22.15;;
22476;SDS011;65006;51.698;-0.292;2023-02-22T06:40:04;70.15;;;22.25;;
22476;SDS011;65006;51.698;-0.292;2023-02-22T06:42:30;73.22;;;24.17;;
22476;SDS011;65006;51.698;-0.292;2023-02-22T06:44:56;67.60;;;23.50;;
22476;SDS011;65006;51.698;-0.292;2023-02-22T06:47:22;68.78;;;21.35;;
22476;SDS011;65006;51.698;-0.292;2023-02-22T06:49:57;67.88;;;22.13;;
22476;SDS011;65006;51.698;-0.292;2023-02-22T06:52:24;64.70;;;20.65;;
22476;SDS011;65006;51.698;-0.292;2023-02-22T06:54:51;61.08;;;22.67;;
22476;SDS011;65006;51.698;-0.292;2023-02-22T06:57:17;63.75;;;21.40;;
22476;SDS011;65006;51.698;-0.292;2023-02-22T06:59:43;63.90;;;21.42;;
22476;SDS011;65006;51.698;-0.292;2023-02-22T07:02:10;57.70;;;20.38;;
22476;SDS011;65006;51.698;-0.292;2023-02-22T07:04:36;72.65;;;19.50;;
22476;SDS011;65006;51.698;-0.292;2023-02-22T07:07:02;59.30;;;19.50;;
22476;SDS011;65006;51.698;-0.292;2023-02-22T07:09:28;63.10;;;20.25;;
22476;SDS011;65006;51.698;-0.292;2023-02-22T07:11:54;55.97;;;17.88;;
22476;SDS011;65006;51.698;-0.292;2023-02-22T07:14:20;57.17;;;19.33;;
22476;SDS011;65006;51.698;-0.292;2023-02-22T07:19:13;56.60;;;18.45;;
22476;SDS011;65006;51.698;-0.292;2023-02-22T07:21:39;54.83;;;19.10;;
22476;SDS011;65006;51.698;-0.292;2023-02-22T07:24:05;57.97;;;17.83;;
22476;SDS011;65006;51.698;-0.292;2023-02-22T07:26:33;57.47;;;19.08;;
22476;SDS011;65006;51.698;-0.292;2023-02-22T07:29:02;60.67;;;19.60;;
22476;SDS011;65006;51.698;-0.292;2023-02-22T07:31:33;59.08;;;19.55;;
22476;SDS011;65006;51.698;-0.292;2023-02-22T07:33:59;60.97;;;18.10;;
22476;SDS011;65006;51.698;-0.292;2023-02-22T07:36:25;54.58;;;17.80;;
22476;SDS011;65006;51.698;-0.292;2023-02-22T07:38:51;46.95;;;16.23;;
22476;SDS011;65006;51.698;-0.292;2023-02-22T07:41:17;51.20;;;16.70;;
22476;SDS011;65006;51.698;-0.292;2023-02-22T07:43:43;53.33;;;18.60;;
22476;SDS011;65006;51.698;-0.292;2023-02-22T07:46:09;53.13;;;17.90;;
22476;SDS011;65006;51.698;-0.292;2023-02-22T07:48:35;53.47;;;17.65;;
22476;SDS011;65006;51.698;-0.292;2023-02-22T07:51:01;58.75;;;16.75;;
22476;SDS011;65006;51.698;-0.292;2023-02-22T07:53:28;51.95;;;16.45;;
22476;SDS011;65006;51.698;-0.292;2023-02-22T07:55:57;44.65;;;15.60;;
22476;SDS011;65006;51.698;-0.292;2023-02-22T07:58:24;50.45;;;16.02;;
22476;SDS011;65006;51.698;-0.292;2023-02-22T08:00:50;45.13;;;15.85;;
22476;SDS011;65006;51.698;-0.292;2023-02-22T08:03:17;47.38;;;15.90;;
22476;SDS011;65006;51.698;-0.292;2023-02-22T08:05:45;46.60;;;15.70;;
22476;SDS011;65006;51.698;-0.292;2023-02-22T08:08:12;50.80;;;15.25;;
22476;SDS011;65006;51.698;-0.292;2023-02-22T08:10:41;46.03;;;15.20;;
22476;SDS011;65006;51.698;-0.292;2023-02-22T08:13:08;42.03;;;14.23;;
22476;SDS011;65006;51.698;-0.292;2023-02-22T08:15:35;47.22;;;15.65;;
22476;SDS011;65006;51.698;-0.292;2023-02-22T08:18:02;46.53;;;14.75;;
22476;SDS011;65006;51.698;-0.292;2023-02-22T08:20:28;46.15;;;15.55;;
22476;SDS011;65006;51.698;-0.292;2023-02-22T08:22:55;44.17;;;14.20;;
22476;SDS011;65006;51.698;-0.292;2023-02-22T08:25:23;47.45;;;14.73;;
22476;SDS011;65006;51.698;-0.292;2023-02-22T08:27:50;47.65;;;14.07;;
22476;SDS011;65006;51.698;-0.292;2023-02-22T08:32:44;45.03;;;14.63;;
22476;SDS011;65006;51.698;-0.292;2023-02-22T08:35:10;39.35;;;13.50;;
22476;SDS011;65006;51.698;-0.292;2023-02-22T08:37:40;45.72;;;15.82;;
22476;SDS011;65006;51.698;-0.292;2023-02-22T08:40:06;39.72;;;14.45;;
22476;SDS011;65006;51.698;-0.292;2023-02-22T08:42:32;43.00;;;13.75;;
22476;SDS011;65006;51.698;-0.292;2023-02-22T08:44:58;38.83;;;13.85;;
22476;SDS011;65006;51.698;-0.292;2023-02-22T08:47:25;36.65;;;14.25;;
22476;SDS011;65006;51.698;-0.292;2023-02-22T08:49:51;40.08;;;13.63;;
22476;SDS011;65006;51.698;-0.292;2023-02-22T08:52:18;40.00;;;12.95;;
22476;SDS011;65006;51.698;-0.292;2023-02-22T08:54:45;41.10;;;13.18;;
22476;SDS011;65006;51.698;-0.292;2023-02-22T08:57:11;41.92;;;14.00;;
22476;SDS011;65006;51.698;-0.292;2023-02-22T08:59:37;46.20;;;13.93;;
22476;SDS011;65006;51.698;-0.292;2023-02-22T09:02:03;37.25;;;12.25;;
22476;SDS011;65006;51.698;-0.292;2023-02-22T09:04:29;33.53;;;12.35;;
22476;SDS011;65006;51.698;-0.292;2023-02-22T09:06:55;36.40;;;12.63;;
22476;SDS011;65006;51.698;-0.292;2023-02-22T09:09:21;35.38;;;13.18;;
22476;SDS011;65006;51.698;-0.292;2023-02-22T09:11:47;32.72;;;12.25;;
22476;SDS011;65006;51.698;-0.292;2023-02-22T09:14:13;36.90;;;12.98;;
22476;SDS011;65006;51.698;-0.292;2023-02-22T09:16:40;36.03;;;12.38;;
22476;SDS011;65006;51.698;-0.292;2023-02-22T09:19:06;31.40;;;11.02;;
22476;SDS011;65006;51.698;-0.292;2023-02-22T09:21:33;36.67;;;13.82;;
22476;SDS011;65006;51.698;-0.292;2023-02-22T09:23:59;37.10;;;12.50;;
22476;SDS011;65006;51.698;-0.292;2023-02-22T09:26:32;35.72;;;13.70;;
22476;SDS011;65006;51.698;-0.292;2023-02-22T09:28:58;34.53;;;12.85;;
22476;SDS011;65006;51.698;-0.292;2023-02-22T09:31:24;39.92;;;13.98;;
22476;SDS011;65006;51.698;-0.292;2023-02-22T09:33:50;40.13;;;13.25;;
22476;SDS011;65006;51.698;-0.292;2023-02-22T09:36:16;31.77;;;12.38;;
22476;SDS011;65006;51.698;-0.292;2023-02-22T09:38:45;33.35;;;12.20;;
22476;SDS011;65006;51.698;-0.292;2023-02-22T09:41:19;37.92;;;12.90;;
22476;SDS011;65006;51.698;-0.292;2023-02-22T09:46:32;34.83;;;13.50;;
22476;SDS011;65006;51.698;-0.292;2023-02-22T09:54:39;37.33;;;13.50;;
22476;SDS011;65006;51.698;-0.292;2023-02-22T09:57:05;33.45;;;12.40;;
22476;SDS011;65006;51.698;-0.292;2023-02-22T09:59:34;32.88;;;12.98;;
22476;SDS011;65006;51.698;-0.292;2023-02-22T10:02:04;35.75;;;12.55;;
22476;SDS011;65006;51.698;-0.292;2023-02-22T10:07:19;38.10;;;13.02;;
22476;SDS011;65006;51.698;-0.292;2023-02-22T10:09:50;36.65;;;13.48;;
22476;SDS011;65006;51.698;-0.292;2023-02-22T10:12:33;30.75;;;11.95;;
22476;SDS011;65006;51.698;-0.292;2023-02-22T10:20:28;35.28;;;13.48;;
22476;SDS011;65006;51.698;-0.292;2023-02-22T10:25:48;30.75;;;11.90;;
22476;SDS011;65006;51.698;-0.292;2023-02-22T10:28:31;30.80;;;11.90;;
22476;SDS011;65006;51.698;-0.292;2023-02-22T10:31:06;27.55;;;11.60;;
22476;SDS011;65006;51.698;-0.292;2023-02-22T10:33:41;25.73;;;10.65;;
22476;SDS011;65006;51.698;-0.292;2023-02-22T10:36:15;27.10;;;11.02;;
22476;SDS011;65006;51.698;-0.292;2023-02-22T10:38:44;29.00;;;10.35;;
22476;SDS011;65006;51.698;-0.292;2023-02-22T10:41:26;26.77;;;10.93;;
22476;SDS011;65006;51.698;-0.292;2023-02-22T10:43:53;27.85;;;11.68;;
22476;SDS011;65006;51.698;-0.292;2023-02-22T10:46:19;25.50;;;11.10;;
22476;SDS011;65006;51.698;-0.292;2023-02-22T10:48:47;29.63;;;12.05;;
22476;SDS011;65006;51.698;-0.292;2023-02-22T10:51:15;26.23;;;10.73;;
22476;SDS011;65006;51.698;-0.292;2023-02-22T10:53:41;24.45;;;9.90;;
22476;SDS011;65006;51.698;-0.292;2023-02-22T10:56:08;27.98;;;10.27;;
22476;SDS011;65006;51.698;-0.292;2023-02-22T11:01:20;22.93;;;9.40;;
22476;SDS011;65006;51.698;-0.292;2023-02-22T11:03:55;27.38;;;9.63;;
22476;SDS011;65006;51.698;-0.292;2023-02-22T11:06:21;25.75;;;9.68;;
22476;SDS011;65006;51.698;-0.292;2023-02-22T11:08:47;24.30;;;10.00;;
22476;SDS011;65006;51.698;-0.292;2023-02-22T11:11:23;24.45;;;9.98;;
22476;SDS011;65006;51.698;-0.292;2023-02-22T11:13:56;34.10;;;9.68;;
22476;SDS011;65006;51.698;-0.292;2023-02-22T11:18:50;23.05;;;9.35;;
22476;SDS011;65006;51.698;-0.292;2023-02-22T11:21:24;24.17;;;9.27;;
22476;SDS011;65006;51.698;-0.292;2023-02-22T11:23:50;19.08;;;8.55;;
22476;SDS011;65006;51.698;-0.292;2023-02-22T11:26:26;22.10;;;8.25;;
22476;SDS011;65006;51.698;-0.292;2023-02-22T11:28:53;20.15;;;7.68;;
22476;SDS011;65006;51.698;-0.292;2023-02-22T11:31:23;22.35;;;8.45;;
22476;SDS011;65006;51.698;-0.292;2023-02-22T11:33:54;18.85;;;8.23;;
22476;SDS011;65006;51.698;-0.292;2023-02-22T11:39:05;18.73;;;7.15;;
22476;SDS011;65006;51.698;-0.292;2023-02-22T11:41:35;20.13;;;6.85;;
22476;SDS011;65006;51.698;-0.292;2023-02-22T11:44:43;14.18;;;7.20;;
22476;SDS011;65006;51.698;-0.292;2023-02-22T11:46:51;18.95;;;8.05;;
22476;SDS011;65006;51.698;-0.292;2023-02-22T11:49:20;17.55;;;6.95;;
22476;SDS011;65006;51.698;-0.292;2023-02-22T11:56:52;22.92;;;7.38;;
22476;SDS011;65006;51.698;-0.292;2023-02-22T11:59:37;15.73;;;6.32;;
22476;SDS011;65006;51.698;-0.292;2023-02-22T12:10:25;19.45;;;8.02;;
22476;SDS011;65006;51.698;-0.292;2023-02-22T12:15:43;17.67;;;7.80;;
22476;SDS011;65006;51.698;-0.292;2023-02-22T12:20:54;19.95;;;7.35;;
22476;SDS011;65006;51.698;-0.292;2023-02-22T12:26:02;19.02;;;8.52;;
22476;SDS011;65006;51.698;-0.292;2023-02-22T12:28:32;17.73;;;7.50;;
22476;SDS011;65006;51.698;-0.292;2023-02-22T12:33:30;14.13;;;7.28;;
22476;SDS011;65006;51.698;-0.292;2023-02-22T12:36:00;18.00;;;6.75;;
22476;SDS011;65006;51.698;-0.292;2023-02-22T12:40:57;17.85;;;7.47;;
22476;SDS011;65006;51.698;-0.292;2023-02-22T12:51:01;11.50;;;5.57;;
22476;SDS011;65006;51.698;-0.292;2023-02-22T12:53:31;14.63;;;6.15;;
22476;SDS011;65006;51.698;-0.292;2023-02-22T12:56:15;14.48;;;5.82;;
22476;SDS011;65006;51.698;-0.292;2023-02-22T12:59:07;11.18;;;4.97;;
22476;SDS011;65006;51.698;-0.292;2023-02-22T13:01:36;12.57;;;5.78;;
22476;SDS011;65006;51.698;-0.292;2023-02-22T13:04:04;11.98;;;5.47;;
22476;SDS011;65006;51.698;-0.292;2023-02-22T13:17:01;12.70;;;5.45;;
22476;SDS011;65006;51.698;-0.292;2023-02-22T13:22:01;14.68;;;6.32;;
22476;SDS011;65006;51.698;-0.292;2023-02-22T13:26:59;13.25;;;5.63;;
22476;SDS011;65006;51.698;-0.292;2023-02-22T13:29:33;16.08;;;5.88;;
22476;SDS011;65006;51.698;-0.292;2023-02-22T13:32:07;11.85;;;5.45;;
22476;SDS011;65006;51.698;-0.292;2023-02-22T13:42:44;14.55;;;6.00;;
22476;SDS011;65006;51.698;-0.292;2023-02-22T13:45:20;12.05;;;4.90;;
22476;SDS011;65006;51.698;-0.292;2023-02-22T13:50:40;13.10;;;5.55;;
22476;SDS011;65006;51.698;-0.292;2023-02-22T13:53:12;10.30;;;5.00;;
22476;SDS011;65006;51.698;-0.292;2023-02-22T13:55:40;10.05;;;4.60;;
22476;SDS011;65006;51.698;-0.292;2023-02-22T13:58:07;9.98;;;5.05;;
22476;SDS011;65006;51.698;-0.292;2023-02-22T14:00:47;12.88;;;5.07;;
22476;SDS011;65006;51.698;-0.292;2023-02-22T14:13:10;11.50;;;5.35;;
22476;SDS011;65006;51.698;-0.292;2023-02-22T14:15:43;8.88;;;4.80;;
22476;SDS011;65006;51.698;-0.292;2023-02-22T14:18:45;11.65;;;5.30;;
22476;SDS011;65006;51.698;-0.292;2023-02-22T14:23:39;9.55;;;4.75;;
22476;SDS011;65006;51.698;-0.292;2023-02-22T14:31:22;13.40;;;5.57;;
22476;SDS011;65006;51.698;-0.292;2023-02-22T14:34:00;10.18;;;4.95;;
22476;SDS011;65006;51.698;-0.292;2023-02-22T14:36:35;10.35;;;4.82;;
22476;SDS011;65006;51.698;-0.292;2023-02-22T14:39:46;11.40;;;5.10;;
22476;SDS011;65006;51.698;-0.292;2023-02-22T14:42:01;8.77;;;5.00;;
22476;SDS011;65006;51.698;-0.292;2023-02-22T14:44:31;10.48;;;5.35;;
22476;SDS011;65006;51.698;-0.292;2023-02-22T14:46:58;10.27;;;4.68;;
22476;SDS011;65006;51.698;-0.292;2023-02-22T14:49:29;6.38;;;3.70;;
22476;SDS011;65006;51.698;-0.292;2023-02-22T14:51:58;8.50;;;4.70;;
22476;SDS011;65006;51.698;-0.292;2023-02-22T14:54:31;7.32;;;3.47;;
22476;SDS011;65006;51.698;-0.292;2023-02-22T15:00:40;5.15;;;2.67;;
22476;SDS011;65006;51.698;-0.292;2023-02-22T15:02:47;7.05;;;3.33;;
22476;SDS011;65006;51.698;-0.292;2023-02-22T15:05:15;5.25;;;2.88;;
22476;SDS011;65006;51.698;-0.292;2023-02-22T15:07:54;9.02;;;3.75;;
22476;SDS011;65006;51.698;-0.292;2023-02-22T15:10:23;5.45;;;2.92;;
22476;SDS011;65006;51.698;-0.292;2023-02-22T15:13:00;4.32;;;2.70;;
22476;SDS011;65006;51.698;-0.292;2023-02-22T15:15:33;6.40;;;3.28;;
22476;SDS011;65006;51.698;-0.292;2023-02-22T15:17:59;5.07;;;2.70;;
22476;SDS011;65006;51.698;-0.292;2023-02-22T15:20:26;5.57;;;3.10;;
22476;SDS011;65006;51.698;-0.292;2023-02-22T15:22:56;5.13;;;3.20;;
22476;SDS011;65006;51.698;-0.292;2023-02-22T15:25:24;7.30;;;3.20;;
22476;SDS011;65006;51.698;-0.292;2023-02-22T15:27:50;6.57;;;3.10;;
22476;SDS011;65006;51.698;-0.292;2023-02-22T15:32:43;4.43;;;2.90;;
22476;SDS011;65006;51.698;-0.292;2023-02-22T15:35:17;5.55;;;2.80;;
22476;SDS011;65006;51.698;-0.292;2023-02-22T15:37:44;7.18;;;3.15;;
22476;SDS011;65006;51.698;-0.292;2023-02-22T15:40:15;5.63;;;2.53;;
22476;SDS011;65006;51.698;-0.292;2023-02-22T15:42:42;5.90;;;2.65;;
22476;SDS011;65006;51.698;-0.292;2023-02-22T15:45:12;9.20;;;3.47;;
22476;SDS011;65006;51.698;-0.292;2023-02-22T15:47:39;5.93;;;3.40;;
22476;SDS011;65006;51.698;-0.292;2023-02-22T15:50:19;6.03;;;3.45;;
22476;SDS011;65006;51.698;-0.292;2023-02-22T15:52:54;6.05;;;2.88;;
22476;SDS011;65006;51.698;-0.292;2023-02-22T15:55:28;5.68;;;3.35;;
22476;SDS011;65006;51.698;-0.292;2023-02-22T15:57:56;7.85;;;3.40;;
22476;SDS011;65006;51.698;-0.292;2023-02-22T16:00:26;5.68;;;3.10;;
22476;SDS011;65006;51.698;-0.292;2023-02-22T16:02:59;8.68;;;2.88;;
22476;SDS011;65006;51.698;-0.292;2023-02-22T16:05:45;6.97;;;3.42;;
22476;SDS011;65006;51.698;-0.292;2023-02-22T16:08:16;4.90;;;2.65;;
22476;SDS011;65006;51.698;-0.292;2023-02-22T16:10:48;4.35;;;2.70;;
22476;SDS011;65006;51.698;-0.292;2023-02-22T16:13:18;6.57;;;2.85;;
22476;SDS011;65006;51.698;-0.292;2023-02-22T16:16:31;6.25;;;3.00;;
22476;SDS011;65006;51.698;-0.292;2023-02-22T16:18:32;4.30;;;2.67;;
22476;SDS011;65006;51.698;-0.292;2023-02-22T16:21:03;9.20;;;3.00;;
22476;SDS011;65006;51.698;-0.292;2023-02-22T16:26:31;5.03;;;3.03;;
22476;SDS011;65006;51.698;-0.292;2023-02-22T16:28:59;6.53;;;2.83;;
22476;SDS011;65006;51.698;-0.292;2023-02-22T16:31:26;6.75;;;2.90;;
22476;SDS011;65006;51.698;-0.292;2023-02-22T16:33:53;5.55;;;2.65;;
22476;SDS011;65006;51.698;-0.292;2023-02-22T16:36:20;7.18;;;2.85;;
22476;SDS011;65006;51.698;-0.292;2023-02-22T16:38:47;6.88;;;2.53;;
22476;SDS011;65006;51.698;-0.292;2023-02-22T16:41:15;4.03;;;2.60;;
22476;SDS011;65006;51.698;-0.292;2023-02-22T16:43:46;4.72;;;2.78;;
22476;SDS011;65006;51.698;-0.292;2023-02-22T16:46:14;4.63;;;3.03;;
22476;SDS011;65006;51.698;-0.292;2023-02-22T16:48:42;7.60;;;2.83;;
22476;SDS011;65006;51.698;-0.292;2023-02-22T16:51:17;8.98;;;2.45;;
22476;SDS011;65006;51.698;-0.292;2023-02-22T16:53:45;4.95;;;2.88;;
22476;SDS011;65006;51.698;-0.292;2023-02-22T16:56:13;5.28;;;2.97;;
22476;SDS011;65006;51.698;-0.292;2023-02-22T16:58:40;5.97;;;3.13;;
22476;SDS011;65006;51.698;-0.292;2023-02-22T17:01:07;4.63;;;2.70;;
22476;SDS011;65006;51.698;-0.292;2023-02-22T17:03:33;4.38;;;2.92;;
22476;SDS011;65006;51.698;-0.292;2023-02-22T17:06:00;10.18;;;3.03;;
22476;SDS011;65006;51.698;-0.292;2023-02-22T17:08:26;6.90;;;3.55;;
22476;SDS011;65006;51.698;-0.292;2023-02-22T17:10:52;5.30;;;3.03;;
22476;SDS011;65006;51.698;-0.292;2023-02-22T17:13:21;14.55;;;2.70;;